Date,TemperatureHighF,TemperatureAvgF,TemperatureLowF,DewpointHighF,DewpointAvgF,DewpointLowF,HumidityHigh,HumidityAvg,HumidityLow,PressureMaxIn,PressureMinIn,WindSpeedMaxMPH,WindSpeedAvgMPH,GustSpeedMaxMPH,PrecipitationSumIn
2013-1-1,34.9,31.7,26.8,34.6,30.1,20.9,99,94,77,30.12,30.01,8,3,11,0.08
2013-1-2,41.2,27.7,18.9,26.8,20.5,16.4,99,76,46,30.22,30.10,15,2,27,0.01
2013-1-3,41.0,28.0,18.9,25.1,20.1,15.8,95,74,44,30.30,30.17,21,5,21,0.00
2013-1-4,41.9,32.3,27.1,26.9,24.1,22.0,85,72,51,30.34,30.27,24,9,34,0.00
2013-1-5,45.0,33.4,24.3,30.6,26.5,22.3,96,77,50,30.35,30.15,11,5,13,0.00
2013-1-6,40.8,34.6,27.9,34.4,28.9,21.8,88,80,75,30.34,30.02,17,7,24,0.00
2013-1-7,46.4,32.3,23.4,29.5,25.3,18.3,99,78,50,30.45,30.22,11,4,14,1.51
2013-1-8,55.2,43.4,27.3,35.3,31.5,24.3,88,65,46,30.31,30.22,14,7,17,0.00
2013-1-9,54.9,46.5,43.2,49.1,42.7,33.5,99,87,68,30.48,30.23,15,6,15,0.04
2013-1-10,54.1,42.2,18.9,51.3,36.7,-2.4,95,82,15,30.50,30.15,11,4,12,0.05
2013-1-11,74.7,58.4,53.8,64.0,53.9,49.4,99,86,62,29.97,29.89,17,10,20,0.39
2013-1-12,66.9,62.2,-2.6,64.6,61.3,-4.4,99,97,35,30.04,29.86,18,7,33,1.15
2013-1-13,65.7,54.1,37.2,63.0,53.6,37.0,99,98,83,30.04,29.78,22,9,22,0.61
2013-1-14,37.0,27.7,24.4,36.8,24.1,22.5,99,86,75,30.38,30.04,6,0,8,0.63
2013-1-15,32.0,28.9,23.0,29.1,25.4,22.2,99,87,77,30.33,30.07,0,0,0,0.63
2013-1-16,34.0,31.5,29.3,31.8,30.4,29.1,99,96,88,30.08,29.96,11,3,13,0.63
2013-1-17,42.1,34.1,28.8,31.6,29.6,26.7,98,84,65,30.30,30.06,5,2,7,0.76
2013-1-18,40.3,31.7,19.8,26.7,22.0,16.3,89,69,47,30.50,30.25,17,8,20,0.01
2013-1-19,57.4,49.5,35.2,30.0,26.1,21.5,67,43,29,30.25,29.93,27,16,33,0.01
2013-1-20,47.5,35.9,27.5,30.2,11.6,7.3,62,39,28,30.20,29.94,19,6,23,0.01
2013-1-21,27.3,20.2,15.3,17.2,6.0,1.1,74,54,43,30.17,30.08,17,7,17,0.01
2013-1-22,23.4,14.3,6.8,5.0,0.2,-3.1,76,55,34,30.36,30.17,15,6,17,0.01
2013-1-23,51.1,19.2,13.3,33.4,5.8,0.8,70,56,50,30.32,30.07,13,5,14,0.01
2013-1-24,29.1,21.1,14.7,10.2,2.9,-1.7,64,47,30,30.54,30.08,10,5,13,0.01
2013-1-25,33.4,22.6,18.9,30.6,17.4,6.7,94,81,55,30.21,30.03,12,5,12,0.01
2013-1-26,40.6,30.0,19.8,23.4,20.5,17.4,99,70,47,30.40,30.20,8,4,11,0.05
2013-1-27,38.8,32.0,21.7,27.2,23.9,18.4,87,72,61,30.40,30.24,11,4,12,0.05
2013-1-28,52.0,50.3,36.7,51.7,49.1,27.0,99,96,68,30.24,30.04,23,11,24,0.31
2013-1-29,67.3,60.4,52.0,59.9,55.9,51.7,99,86,72,30.06,29.70,31,12,31,0.31
2013-1-30,61.9,51.6,37.0,61.6,50.4,34.9,99,96,83,29.53,29.31,26,12,35,0.76
2013-1-31,37.0,27.5,24.1,35.2,20.1,12.0,99,74,55,29.93,29.46,21,12,28,0.76
2013-2-1,21.9,13.2,5.7,21.7,3.9,-0.9,99,66,52,30.38,29.93,17,8,17,0.76
2013-2-2,33.6,27.0,12.0,28.5,24.2,6.0,99,90,70,30.30,29.97,18,8,20,0.77
2013-2-3,27.9,23.3,18.9,24.2,17.9,14.8,93,80,63,30.08,29.93,14,7,16,0.00
2013-2-4,37.4,29.0,17.6,35.0,25.6,16.6,99,88,68,30.09,29.81,21,8,21,0.09
2013-2-5,39.0,33.6,29.8,35.2,32.1,29.6,99,94,80,29.93,29.83,7,2,8,0.12
2013-2-6,39.4,34.6,30.2,34.1,29.4,26.9,93,82,69,30.23,29.93,6,3,9,0.12
2013-2-7,64.9,49.6,30.4,39.7,33.8,27.3,93,62,35,30.19,29.89,11,4,14,0.12
2013-2-8,54.1,35.6,34.0,38.2,31.9,27.8,99,86,53,30.24,29.87,12,6,22,0.18
2013-2-9,47.1,33.8,22.5,22.4,20.6,19.1,88,61,37,30.40,30.24,8,3,9,0.18
2013-2-10,57.0,48.1,33.8,45.6,32.3,22.0,93,59,34,30.24,29.83,24,10,24,0.20
2013-2-11,52.9,49.1,42.1,50.0,34.0,28.3,92,58,43,30.02,29.79,35,16,40,0.21
2013-2-12,53.6,40.5,30.9,29.3,26.4,22.4,85,61,33,30.12,29.90,11,5,11,0.21
2013-2-13,38.3,32.6,30.7,33.8,30.6,26.2,99,93,64,29.89,29.75,8,3,10,0.07
2013-2-14,55.6,42.9,30.2,39.3,34.4,30.0,99,76,49,29.94,29.82,23,10,24,0.09
2013-2-15,46.6,34.3,26.8,34.6,28.3,22.3,90,79,52,30.13,29.94,14,5,14,0.09
2013-2-16,34.2,26.7,20.5,22.7,16.5,9.8,96,67,44,30.08,30.01,15,6,20,0.09
2013-2-17,37.6,27.3,14.0,14.8,8.1,0.5,94,51,23,30.21,30.08,11,4,15,0.09
2013-2-18,58.5,44.3,25.3,40.0,27.0,14.4,78,53,37,30.11,29.76,36,15,39,0.12
2013-2-19,46.4,33.3,26.2,42.1,27.5,14.9,99,80,61,30.07,29.75,26,14,30,0.19
2013-2-20,35.1,27.2,20.5,16.6,13.7,11.6,71,57,44,30.27,30.08,13,5,19,0.19
2013-2-21,36.0,28.6,18.7,23.6,19.9,14.2,84,70,60,30.32,30.11,14,6,16,0.19
2013-2-22,49.5,42.0,29.5,43.6,39.3,22.9,99,90,76,30.10,29.89,13,5,15,0.28
2013-2-23,52.3,40.8,32.4,36.6,27.5,24.5,89,61,38,29.98,29.88,11,4,14,0.28
2013-2-24,50.7,35.2,25.3,28.4,24.6,22.1,95,68,39,30.13,29.92,11,3,12,0.00
2013-2-25,51.1,36.7,23.9,28.3,23.9,21.5,93,63,40,30.14,29.87,14,6,16,0.00
2013-2-26,52.0,43.1,36.1,49.9,39.0,23.5,99,87,55,29.88,29.36,24,8,28,0.48
2013-2-27,41.2,39.6,38.3,40.9,39.3,38.0,99,99,98,29.57,29.52,17,11,24,0.01
2013-2-28,36.1,34.0,31.8,35.0,32.5,29.7,99,94,88,29.92,29.69,16,9,16,0.01
2013-3-1,36.5,33.8,30.6,35.7,32.9,27.2,99,97,87,30.00,29.90,8,3,8,0.05
2013-3-2,30.6,27.6,26.6,25.9,22.6,20.7,87,81,75,30.06,29.97,7,3,7,0.00
2013-3-3,32.0,28.8,25.7,26.3,22.0,17.8,89,76,67,30.06,30.01,8,4,13,0.00
2013-3-4,48.9,33.9,18.3,26.1,21.5,17.0,97,65,38,30.14,29.98,9,4,11,0.00
2013-3-5,40.1,37.2,32.2,38.8,33.8,25.0,99,88,58,29.98,29.55,17,6,21,0.28
2013-3-6,32.5,29.5,27.5,32.3,29.3,27.3,99,99,99,30.22,29.62,17,4,17,0.28
2013-3-7,39.4,33.7,29.7,35.3,31.5,28.3,99,92,80,30.35,30.22,7,2,9,0.33
2013-3-8,50.7,34.5,25.9,31.7,27.0,24.7,97,78,41,30.44,30.34,9,2,12,0.00
2013-3-9,64.4,45.5,28.9,38.0,31.6,27.7,98,63,34,30.35,30.05,11,4,14,0.00
2013-3-10,70.9,60.1,52.0,42.1,34.4,30.8,53,39,23,30.05,29.84,22,10,24,0.01
2013-3-11,60.3,48.9,37.8,54.8,45.4,33.4,99,89,45,29.87,29.62,29,8,29,0.71
2013-3-12,48.0,38.7,34.2,33.8,30.1,26.5,87,72,50,30.03,29.86,17,8,21,0.00
2013-3-13,36.9,30.9,26.2,33.2,24.5,18.1,99,78,53,30.30,30.00,21,8,23,0.00
2013-3-14,48.2,33.4,21.2,23.2,19.7,14.9,94,62,27,30.34,30.16,14,6,14,0.00
2013-3-15,55.8,42.6,29.8,39.9,34.1,21.9,97,73,54,30.16,29.79,33,5,33,0.00
2013-3-16,68.9,50.8,38.7,54.6,44.5,34.7,99,81,56,30.00,29.63,22,7,23,0.11
2013-3-17,38.5,34.5,31.8,35.0,33.1,30.2,99,95,85,30.12,29.97,15,5,15,0.38
2013-3-18,49.8,41.7,34.3,49.6,41.0,34.1,99,97,79,29.97,29.63,21,8,24,0.54
2013-3-19,48.7,38.7,29.8,35.7,23.6,11.3,97,59,22,30.10,29.84,29,11,34,0.00
2013-3-20,43.7,34.1,23.4,23.8,17.6,10.2,75,51,34,30.09,29.92,21,9,22,0.00
2013-3-21,39.4,27.0,19.8,15.8,12.0,8.2,74,54,30,30.03,29.92,15,4,15,0.00
2013-3-22,51.6,37.2,19.6,22.0,15.7,12.4,78,44,21,30.06,29.97,12,3,12,0.00
2013-3-23,59.9,42.8,31.5,25.4,21.4,16.8,64,44,22,30.05,29.86,13,3,13,0.00
2013-3-24,40.8,35.5,32.2,35.7,30.0,23.4,99,82,51,29.86,29.39,21,6,23,0.25
2013-3-25,34.7,32.4,29.5,34.5,32.2,29.2,99,99,97,29.92,29.42,17,7,19,0.22
2013-3-26,41.9,34.9,31.3,36.3,31.1,26.3,99,87,59,30.22,29.93,13,3,17,0.04
2013-3-27,46.2,37.4,28.6,31.8,27.1,25.3,91,67,46,30.30,30.21,17,5,17,0.00
2013-3-28,56.8,42.0,27.9,30.8,25.2,21.1,79,53,31,30.34,30.26,11,3,13,0.00
2013-3-29,59.9,44.9,29.8,35.0,28.8,24.3,91,57,30,30.31,30.18,13,3,14,0.00
2013-3-30,63.7,50.6,35.1,36.9,33.0,28.5,85,53,30,30.23,29.95,16,4,18,0.00
2013-3-31,60.3,50.2,44.6,49.4,43.6,36.5,99,80,54,29.94,29.78,17,5,20,0.02
2013-4-1,54.3,44.1,35.6,41.3,30.8,17.7,89,62,28,30.10,29.80,16,5,21,0.00
2013-4-2,52.2,39.3,27.1,22.1,16.8,12.2,68,43,21,30.24,30.10,15,4,23,0.00
2013-4-3,53.2,40.2,26.6,19.6,15.3,9.4,70,39,18,30.39,30.24,17,4,19,0.00
2013-4-4,56.3,44.0,33.1,27.7,19.9,15.7,53,39,24,30.31,29.99,10,4,13,0.00
2013-4-5,68.2,51.9,36.5,36.7,28.9,22.8,68,44,19,30.12,29.97,14,4,17,0.00
2013-4-6,69.6,54.5,38.5,39.3,29.8,20.8,59,40,24,30.19,29.92,16,7,21,0.00
2013-4-7,74.5,64.0,57.6,57.5,46.2,35.7,99,54,40,30.00,29.89,24,12,25,0.01
2013-4-8,73.9,64.1,55.4,57.4,54.3,48.4,99,72,51,30.01,29.91,23,8,29,0.00
2013-4-9,82.4,70.8,59.2,61.5,56.7,53.4,82,63,40,30.06,29.94,30,10,32,0.00
2013-4-10,84.9,74.5,66.6,65.5,61.0,58.4,79,64,43,29.99,29.79,27,11,31,0.00
2013-4-11,73.8,65.1,58.3,64.5,60.5,56.1,99,86,57,29.83,29.56,14,6,21,0.59
2013-4-12,58.1,48.1,40.8,57.8,41.5,33.4,99,79,54,29.93,29.54,27,9,27,0.07
2013-4-13,62.8,48.0,34.9,38.8,34.7,32.6,95,63,34,30.03,29.93,29,8,29,0.00
2013-4-14,74.5,57.4,40.1,47.6,40.8,36.1,89,58,31,30.06,29.88,13,5,16,0.00
2013-4-15,70.0,62.9,56.7,56.5,52.7,45.7,78,70,54,30.01,29.91,15,7,18,0.00
2013-4-16,83.1,66.4,58.6,67.8,60.3,55.1,99,82,58,30.18,29.97,21,7,26,0.22
2013-4-17,80.1,66.3,57.2,66.9,61.8,56.9,99,87,60,30.20,29.97,15,6,19,0.15
2013-4-18,83.5,73.4,63.1,65.6,59.2,53.0,89,64,39,29.98,29.65,33,15,36,0.01
2013-4-19,73.8,50.2,38.8,63.4,42.5,32.0,99,76,52,30.00,29.45,30,13,30,0.40
2013-4-20,58.1,45.0,34.7,35.7,31.0,25.6,98,62,31,30.38,30.00,17,6,22,0.00
2013-4-21,64.0,48.4,33.8,33.3,29.0,25.6,76,50,25,30.50,30.34,14,5,14,0.00
2013-4-22,74.3,57.4,36.3,43.9,36.2,28.8,86,47,28,30.35,30.13,14,4,14,0.00
2013-4-23,71.6,61.8,49.3,54.0,47.2,39.0,71,59,50,30.14,29.89,16,6,19,0.00
2013-4-24,65.1,52.2,39.0,58.0,46.5,36.5,99,82,61,30.23,29.81,21,8,26,0.64
2013-4-25,63.7,47.7,34.9,41.1,36.4,31.7,99,69,39,30.37,30.22,22,7,22,0.00
2013-4-26,68.7,53.0,35.6,39.7,31.8,27.1,98,49,25,30.45,30.32,9,2,11,0.00
2013-4-27,63.1,56.2,44.6,53.1,42.3,30.8,86,61,40,30.34,30.06,13,4,14,0.00
2013-4-28,69.3,59.3,54.5,63.4,57.7,53.2,99,94,75,30.06,29.83,14,6,18,0.41
2013-4-29,64.0,58.4,54.3,60.2,55.8,-0.6,99,92,10,30.01,29.90,9,4,11,0.02
2013-4-30,84.4,66.8,48.4,61.5,55.1,48.1,99,71,36,30.07,29.97,9,3,16,0.09
2013-5-1,89.4,73.5,-6.7,64.4,54.3,-16.4,61,53,10,30.19,30.06,25,2,28,0.09
2013-5-2,106.9,61.5,-2.4,96.1,42.1,-45.1,80,53,10,30.22,30.10,49,5,49,0.09
2013-5-3,73.4,72.8,64.9,55.8,54.7,40.1,54,53,40,30.10,29.97,8,5,13,0.00
2013-5-4,79.5,65.9,56.5,52.3,46.3,39.9,85,51,32,30.00,29.92,12,6,29,0.00
2013-5-5,56.5,52.9,50.2,54.2,51.6,48.1,99,95,77,30.00,29.92,24,3,24,1.58
2013-5-6,72.0,58.4,52.0,68.6,55.3,3.9,99,90,10,29.95,29.88,36,7,36,0.48
2013-5-7,79.9,62.6,53.1,65.2,56.2,8.8,99,84,10,29.98,29.91,97,4,97,0.02
2013-5-8,83.1,63.3,-0.2,66.3,54.4,-12.0,99,79,10,30.03,29.92,27,2,27,0.07
2013-5-9,84.0,69.0,56.7,65.2,58.9,53.6,99,74,37,30.05,29.96,11,3,28,0.00
2013-5-10,73.8,63.7,-2.4,64.6,59.0,-45.3,99,86,10,29.97,29.84,58,9,58,0.37
2013-5-11,62.1,55.3,18.0,61.8,49.1,4.9,99,85,10,30.00,29.86,49,6,49,0.05
2013-5-12,61.7,50.0,38.8,43.1,36.4,30.0,99,64,31,30.13,30.00,16,4,19,0.00
2013-5-13,68.2,53.8,39.9,40.5,34.2,27.8,87,51,24,30.19,30.10,19,4,33,0.00
2013-5-14,82.9,63.7,46.2,65.0,46.7,33.9,70,55,39,30.15,29.85,17,8,25,0.00
2013-5-15,71.4,67.2,-7.4,59.6,55.7,-15.9,68,67,65,29.88,29.87,13,8,31,0.00
2013-5-16,78.1,67.3,62.6,69.1,62.3,53.3,99,86,57,30.01,29.88,11,4,11,0.25
2013-5-17,83.3,66.5,-3.6,70.0,62.8,-42.7,99,90,10,30.07,30.00,12,3,27,0.17
2013-5-18,85.5,67.8,-21.5,72.1,62.9,-31.0,99,87,10,30.08,29.98,26,2,26,0.06
2013-5-19,89.8,74.0,62.8,74.1,67.6,62.5,99,83,53,30.03,29.92,8,3,9,0.04
2013-5-20,86.0,74.9,-20.0,73.4,68.2,-27.3,99,82,10,30.04,29.92,13,6,13,0.00
2013-5-21,86.2,74.6,-11.2,75.1,66.8,-16.0,99,79,35,30.00,29.84,29,7,33,0.06
2013-5-22,80.2,70.2,62.1,68.0,58.0,7.5,99,74,10,29.89,29.77,21,7,42,0.05
2013-5-23,72.5,64.9,54.7,66.7,59.7,35.1,99,84,35,30.07,29.82,14,5,36,0.01
2013-5-24,71.2,59.9,13.6,48.8,41.3,-32.7,83,53,10,30.32,30.07,117,6,117,0.09
2013-5-25,70.7,56.4,13.6,49.1,42.8,-32.7,99,64,10,30.39,30.22,117,3,117,0.09
2013-5-26,76.8,63.0,-8.0,53.1,48.0,-24.3,95,61,10,30.31,30.18,24,2,42,0.00
2013-5-27,103.8,70.1,53.2,69.6,54.7,36.6,99,61,10,30.21,29.98,107,7,107,0.19
2013-5-28,84.0,76.2,68.0,67.3,61.8,19.9,83,62,10,30.07,29.96,34,8,35,0.00
2013-5-29,87.8,77.9,68.4,67.4,63.7,59.4,77,62,45,30.11,30.00,17,7,37,0.00
2013-5-30,88.3,75.7,68.2,71.5,66.5,64.1,89,74,51,30.17,30.03,14,6,14,0.00
2013-5-31,86.4,73.6,68.2,71.6,67.4,64.3,99,82,58,30.09,29.98,22,8,29,0.51
2013-6-1,83.3,73.3,-7.8,72.0,68.5,-8.3,99,86,10,30.00,29.82,17,8,21,0.04
2013-6-2,82.4,72.1,65.3,70.3,64.1,60.3,99,78,49,29.93,29.85,12,5,27,0.00
2013-6-3,76.6,66.5,58.1,62.0,56.2,53.2,90,71,48,30.06,29.93,9,3,14,0.00
2013-6-4,82.2,66.4,51.8,53.6,47.7,37.4,99,58,21,30.15,30.06,11,3,12,0.00
2013-6-5,86.0,69.8,55.9,68.5,58.2,47.0,99,70,45,30.08,29.88,11,2,14,0.31
2013-6-6,121.3,69.3,63.1,99.9,66.2,8.5,99,92,10,29.90,29.79,11,3,27,0.46
2013-6-7,83.5,68.2,57.9,63.8,60.8,55.3,99,80,48,29.90,29.81,10,4,29,0.19
2013-6-8,84.6,69.7,56.7,66.1,60.8,18.9,99,76,10,30.04,29.90,9,3,9,0.00
2013-6-9,83.5,71.9,62.4,71.4,65.2,21.3,99,82,10,30.09,29.94,14,5,34,0.00
2013-6-10,80.1,69.5,-7.4,69.5,66.0,-8.1,99,89,62,29.94,29.81,15,6,18,0.35
2013-6-11,86.9,73.5,-15.3,68.0,56.2,-21.8,99,67,10,30.00,29.89,30,6,30,0.01
2013-6-12,92.3,73.6,-21.1,79.0,64.0,-39.8,97,74,10,29.97,29.79,107,6,109,0.76
2013-6-13,83.7,75.8,66.2,75.7,67.5,57.2,99,77,50,29.93,29.65,18,6,21,0.60
2013-6-14,88.0,72.2,4.3,65.0,58.0,-18.9,99,64,10,30.06,29.93,9,2,11,0.00
2013-6-15,86.5,73.3,-16.4,68.3,61.5,-26.6,99,69,46,30.14,29.98,34,4,34,0.00
2013-6-16,78.4,72.0,66.7,75.0,67.7,62.9,99,87,71,30.06,29.98,9,4,29,0.21
2013-6-17,91.4,77.4,64.8,73.1,68.9,64.5,99,77,51,30.00,29.90,11,2,17,0.00
2013-6-18,111.7,72.1,-13.4,99.9,61.9,-54.0,99,77,10,30.00,29.87,36,4,36,0.08
2013-6-19,87.8,72.7,59.2,66.5,60.1,55.8,99,69,37,30.13,29.99,8,3,11,0.01
2013-6-20,90.9,75.9,58.3,67.0,60.0,30.7,97,61,34,30.22,30.13,8,2,10,0.00
2013-6-21,92.8,77.6,-19.8,71.5,64.2,-28.0,88,64,44,30.23,30.14,11,3,11,0.00
2013-6-22,92.1,78.7,-9.4,74.5,68.9,-35.4,99,74,25,30.21,30.08,11,4,35,0.00
2013-6-23,91.0,78.5,66.6,73.3,68.8,64.9,99,75,43,30.17,30.08,14,4,14,0.00
2013-6-24,88.3,76.7,67.5,74.4,70.0,67.2,99,81,59,30.17,30.06,12,4,15,0.00
2013-6-25,92.3,79.9,66.9,78.4,72.6,66.7,99,80,55,30.10,29.93,12,5,15,0.00
2013-6-26,88.0,73.1,-20.9,77.4,69.9,-26.9,99,90,67,29.97,29.81,20,5,27,1.39
2013-6-27,88.5,75.1,66.7,76.4,70.9,66.5,99,88,60,29.83,29.73,12,4,14,0.01
2013-6-28,87.8,79.4,71.6,73.7,69.1,61.7,99,74,42,29.74,29.62,15,7,21,0.00
2013-6-29,79.5,68.7,63.0,70.4,66.6,62.7,99,94,65,29.68,29.61,10,3,10,0.18
2013-6-30,86.0,70.9,62.1,70.3,66.2,61.8,99,87,53,29.84,29.67,8,2,16,0.06
2013-7-1,85.3,71.0,64.9,74.0,68.3,64.2,99,92,62,29.93,29.82,9,3,11,0.12
2013-7-2,86.7,73.6,63.7,71.7,68.2,63.4,99,85,56,30.04,29.93,9,3,11,0.01
2013-7-3,83.7,75.3,68.0,74.2,71.0,67.7,99,87,63,30.14,30.04,9,3,10,0.00
2013-7-4,72.7,70.5,67.1,72.4,69.9,66.8,99,98,89,30.18,30.08,8,3,10,1.32
2013-7-5,79.7,71.0,65.7,75.6,70.0,65.4,99,97,82,30.17,30.11,8,4,11,0.58
2013-7-6,80.2,71.2,67.3,76.8,70.5,67.0,99,97,81,30.15,30.07,12,4,19,1.07
2013-7-7,87.6,73.9,65.7,74.4,68.8,65.4,99,86,61,30.14,30.05,8,3,11,0.00
2013-7-8,88.9,78.3,67.5,75.5,71.3,67.2,99,81,55,30.16,30.06,11,4,13,0.00
2013-7-9,90.7,81.6,74.3,81.3,75.2,71.8,96,81,64,30.11,30.01,14,5,17,0.00
2013-7-10,92.3,78.9,69.4,79.9,75.1,69.2,99,89,65,30.03,29.87,17,5,24,0.13
2013-7-11,88.0,73.0,67.5,73.5,67.1,60.7,99,83,58,30.03,29.95,14,3,16,0.00
2013-7-12,84.6,72.2,58.8,65.3,61.2,58.6,99,71,48,30.11,30.03,14,4,14,0.00
2013-7-13,88.3,75.6,64.2,70.9,66.4,62.6,96,75,53,30.15,30.07,11,4,14,0.00
2013-7-14,94.8,81.2,69.1,78.0,73.0,68.3,99,78,55,30.24,30.13,11,4,33,0.00
2013-7-15,97.2,84.1,72.3,75.9,73.0,68.9,99,72,43,30.33,30.24,6,3,8,0.00
2013-7-16,102.0,86.3,70.9,78.1,73.4,70.2,99,69,41,30.36,30.27,6,2,7,0.00
2013-7-17,100.4,86.9,72.9,80.5,76.8,72.6,99,75,47,30.34,30.21,6,2,8,0.00
2013-7-18,97.9,91.8,80.2,79.2,76.1,72.4,96,62,47,30.22,30.05,7,3,9,0.00
2013-7-19,91.6,81.9,74.8,79.2,76.7,72.1,99,85,62,30.08,29.93,17,4,21,0.02
2013-7-20,91.6,79.9,72.5,77.1,74.1,70.5,99,84,58,29.96,29.88,14,5,20,0.00
2013-7-21,94.5,79.2,70.2,75.9,72.7,69.9,99,83,49,29.99,29.90,6,1,8,0.07
2013-7-22,82.2,73.3,68.5,76.4,72.0,68.3,99,96,77,29.94,29.79,11,3,13,1.24
2013-7-23,88.0,76.0,69.3,76.9,72.6,64.2,99,90,65,29.87,29.77,15,4,15,0.33
2013-7-24,82.9,70.3,60.1,70.8,64.2,59.8,99,83,55,30.00,29.84,9,3,11,0.00
2013-7-25,86.7,70.4,57.2,63.2,59.1,55.8,99,70,39,30.09,30.00,8,3,11,0.00
2013-7-26,84.7,71.3,57.7,68.6,62.8,57.5,99,77,45,30.11,29.99,9,2,11,0.00
2013-7-27,77.5,69.0,64.4,69.6,66.3,60.5,99,92,70,29.99,29.87,9,4,15,0.12
2013-7-28,77.2,66.4,53.6,60.2,54.7,49.8,99,69,44,30.08,29.92,14,4,14,0.00
2013-7-29,83.3,69.1,55.9,61.6,57.9,54.4,97,70,43,30.20,30.07,11,4,15,0.00
2013-7-30,84.2,70.7,58.3,67.0,63.0,58.0,99,78,47,30.24,30.14,7,2,9,0.00
2013-7-31,80.4,70.2,-12.8,71.3,67.2,-17.0,99,91,69,30.14,29.97,17,4,17,0.19
2013-8-1,86.4,75.1,68.0,72.2,65.8,58.2,99,76,45,30.02,29.94,13,3,13,0.00
2013-8-2,85.1,73.0,59.9,68.2,63.2,59.0,99,73,46,30.04,29.99,12,4,15,0.00
2013-8-3,86.2,72.1,-19.3,79.4,67.0,-52.3,99,85,15,30.04,29.98,9,2,9,0.20
2013-8-4,84.0,71.7,-17.3,66.1,59.8,-32.4,99,69,39,30.14,30.04,11,3,14,0.00
2013-8-5,85.3,71.7,57.4,64.3,59.4,55.9,99,68,39,30.13,29.99,8,2,10,0.00
2013-8-6,87.3,74.8,66.6,72.2,65.9,60.4,95,74,59,30.01,29.94,8,4,11,0.00
2013-8-7,88.9,75.8,-6.0,78.3,68.5,-48.1,99,83,10,29.98,29.90,28,4,29,0.00
2013-8-8,88.2,77.0,70.5,79.2,74.6,70.3,99,93,69,29.99,29.91,9,3,10,0.24
2013-8-9,75.0,71.4,69.3,74.8,60.9,58.1,99,71,63,30.05,29.93,13,3,13,1.10
2013-8-10,77.9,73.3,71.6,72.6,69.1,58.7,99,88,63,30.10,30.04,4,1,4,0.00
2013-8-11,74.3,72.0,71.1,72.8,71.6,70.8,99,99,93,30.12,30.08,3,1,4,0.00
2013-8-12,87.8,78.1,65.5,75.9,71.8,65.2,99,82,56,30.10,29.90,11,4,12,0.00
2013-8-13,82.2,72.0,63.5,73.0,67.7,52.4,99,88,53,30.06,29.88,10,4,11,0.00
2013-8-14,77.0,64.3,52.0,56.4,52.7,49.9,99,69,42,30.17,30.06,12,3,12,0.00
2013-8-15,78.1,65.7,52.9,59.7,55.9,52.1,99,72,47,30.18,30.09,8,2,9,0.00
2013-8-16,83.1,68.8,54.7,62.1,58.4,54.4,99,73,43,30.17,30.11,11,3,12,0.00
2013-8-17,87.6,72.4,60.3,66.9,61.7,57.2,91,71,44,30.19,30.12,8,4,11,0.00
2013-8-18,84.4,72.8,61.5,69.9,66.0,61.3,99,81,58,30.19,30.11,10,2,11,0.00
2013-8-19,91.4,75.3,62.2,73.5,65.5,60.8,99,76,39,30.16,30.08,7,2,8,0.00
2013-8-20,90.5,76.9,62.6,72.3,66.9,62.3,99,74,43,30.19,30.10,8,2,27,0.00
2013-8-21,89.1,76.8,68.5,75.0,70.9,67.4,99,83,59,30.19,30.08,8,4,11,0.00
2013-8-22,94.5,76.8,36.3,75.4,70.7,23.8,99,83,49,30.14,30.05,38,4,38,0.00
2013-8-23,90.0,75.6,67.6,73.5,69.4,65.8,99,83,49,30.15,30.05,5,2,8,0.09
2013-8-24,90.7,76.2,8.8,70.9,63.2,-36.5,99,68,10,30.27,30.15,25,3,29,1.51
2013-8-25,96.6,76.4,-15.3,70.4,63.3,-15.4,99,68,30,30.35,30.24,6,2,9,0.00
2013-8-26,94.1,77.6,65.5,74.7,69.7,65.2,99,79,47,30.27,30.10,8,3,30,0.00
2013-8-27,93.7,80.5,71.2,77.7,74.3,40.8,99,83,25,30.11,29.99,10,4,13,0.00
2013-8-28,95.4,82.3,73.4,77.6,74.9,72.6,99,81,50,30.01,29.90,16,6,19,0.00
2013-8-29,90.3,78.7,70.7,78.2,73.1,70.2,99,84,57,30.06,29.97,8,3,12,0.00
2013-8-30,93.9,78.8,66.6,78.7,70.3,66.3,99,78,45,30.02,29.87,8,2,11,0.00
2013-8-31,93.4,75.9,-8.5,77.5,71.6,-9.2,99,88,24,29.93,29.78,34,6,34,1.07
2013-9-1,88.5,75.6,67.1,75.5,71.4,66.8,99,88,60,29.87,29.79,10,4,12,0.00
2013-9-2,91.6,78.7,70.9,75.8,71.8,64.2,99,81,54,29.90,29.81,12,4,14,0.00
2013-9-3,74.7,66.9,60.4,63.7,61.4,59.7,99,83,63,30.04,29.90,10,3,11,0.00
2013-9-4,86.5,69.7,56.7,65.6,60.5,54.4,99,76,47,30.17,30.07,7,2,7,0.00
2013-9-5,92.5,74.7,59.4,68.3,63.0,59.1,99,71,35,30.21,30.14,7,2,7,0.00
2013-9-6,89.1,70.9,56.5,58.8,54.5,51.0,89,59,29,30.25,30.12,11,3,11,0.00
2013-9-7,88.9,73.6,56.3,69.4,63.0,54.7,99,72,47,30.12,29.98,9,3,9,0.00
2013-9-8,73.9,73.7,73.4,68.3,68.2,68.1,84,83,82,29.98,29.98,3,3,3,0.00
2013-9-9,92.1,80.3,69.4,74.0,71.4,69.1,99,77,50,30.07,29.99,14,5,14,0.00
2013-9-10,94.1,81.9,72.9,77.2,74.2,71.6,99,79,55,30.16,30.06,10,5,10,0.00
2013-9-11,93.7,81.1,72.3,76.2,73.7,71.8,99,80,52,30.19,30.06,10,5,10,0.00
2013-9-12,82.2,74.3,65.1,75.7,71.8,64.8,99,92,71,30.06,29.90,8,5,8,0.33
2013-9-13,68.7,61.8,50.2,64.7,53.1,47.2,99,76,49,30.08,29.93,9,4,9,0.00
2013-9-14,75.6,59.5,46.4,54.0,47.8,44.4,99,70,33,30.18,30.09,7,3,7,0.00
2013-9-15,80.2,69.6,47.3,61.1,57.4,47.0,99,67,48,30.16,30.04,17,4,17,0.00
2013-9-16,67.3,62.9,59.7,63.1,61.2,59.4,99,95,81,30.18,30.07,7,3,10,0.08
2013-9-17,81.0,64.7,52.3,58.4,55.1,52.1,99,74,42,30.31,30.17,10,4,10,0.00
2013-9-18,80.4,68.2,60.1,69.5,63.9,55.1,99,87,55,30.17,30.09,8,4,8,0.00
2013-9-19,82.2,70.9,64.9,72.2,68.2,64.7,99,92,68,30.11,30.00,11,5,11,0.09
2013-9-20,84.2,72.4,67.5,71.7,69.3,67.2,99,91,64,30.02,29.94,12,5,13,0.00
2013-10-8,73.2,56.4,44.4,56.4,46.1,35.7,99,72,37,30.28,30.17,10,3,10,0.01
2013-10-9,80.1,61.6,47.7,55.0,48.2,44.7,99,67,30,30.24,30.16,7,2,7,0.00
2013-10-10,82.2,61.1,44.2,61.5,48.4,44.0,99,70,30,30.20,30.08,5,1,5,0.00
2013-10-11,87.3,65.0,48.0,59.7,53.7,47.8,99,73,36,30.12,30.03,4,1,4,0.00
2013-10-12,83.1,66.3,52.3,65.3,57.6,41.9,99,76,46,30.14,30.04,6,2,6,0.00
2013-10-13,81.1,65.2,54.5,67.0,58.2,46.3,99,80,55,30.29,30.13,7,2,7,0.00
2013-10-14,73.9,56.0,47.7,56.1,49.2,46.3,96,80,50,30.32,30.26,7,3,10,0.00
2013-10-15,75.4,65.5,57.2,65.3,61.9,56.9,99,89,71,30.19,29.97,11,4,11,0.00
2013-10-16,66.0,62.3,52.2,64.3,59.9,49.1,99,92,61,29.98,29.91,11,5,14,0.15
2013-10-17,57.2,50.5,46.4,52.4,48.9,46.1,99,94,80,30.00,29.88,12,3,13,0.20
2013-10-18,56.1,45.3,42.6,50.7,44.8,42.4,99,98,82,30.06,29.99,11,4,12,0.01
2013-10-25,53.8,40.2,29.7,36.4,30.6,27.6,99,72,38,30.43,30.26,8,4,8,0.00
2013-10-26,54.1,43.2,30.0,40.1,32.5,26.3,86,67,50,30.28,29.95,34,8,34,0.01
2013-10-27,63.1,49.0,35.6,43.6,37.8,33.4,99,69,36,30.10,30.03,9,2,9,0.00
2013-10-28,71.8,50.8,33.6,49.3,37.7,33.4,99,67,28,30.28,30.09,8,2,8,0.00
2013-10-29,59.2,50.1,36.9,52.5,44.8,35.5,99,82,70,30.34,30.21,4,2,4,0.00
2013-10-30,64.4,58.8,52.9,64.1,56.6,42.4,99,93,60,30.20,30.03,9,3,9,0.18
2013-10-31,67.8,64.4,61.7,65.6,61.6,57.9,99,91,79,30.02,29.44,34,14,34,0.08
2013-11-1,68.2,58.0,49.8,67.9,50.0,44.9,99,77,47,29.76,29.48,19,8,19,0.04
2013-11-2,60.8,51.4,44.6,49.0,42.4,37.8,94,73,48,29.94,29.76,14,6,14,0.00
2013-11-3,59.4,47.8,37.6,44.1,35.8,-14.1,99,68,10,30.35,30.17,6,2,6,0.00
2013-11-4,60.6,50.7,30.6,44.6,38.9,-10.7,90,66,10,30.39,30.30,11,4,11,0.00
2013-11-5,62.2,54.5,24.3,45.6,40.6,-2.2,82,61,10,30.40,30.22,30,4,30,0.00
2013-11-6,69.1,57.2,-0.9,61.8,52.4,-9.6,99,86,56,30.22,29.98,18,9,18,0.39
2013-11-7,57.0,44.6,20.8,48.5,34.7,6.5,99,72,36,30.25,30.02,11,5,14,0.09
2013-11-8,58.1,41.7,3.7,36.5,29.2,-25.6,99,66,10,30.37,30.20,27,5,31,1.51
2013-11-9,63.0,48.7,22.6,55.5,31.8,-18.9,96,55,10,30.24,30.05,24,10,28,0.01
2013-11-10,58.5,47.9,18.5,41.0,28.6,-12.3,86,54,10,30.34,30.11,100,5,100,0.09
2013-11-11,63.9,47.2,8.2,45.5,31.8,-14.8,99,60,15,30.30,30.08,15,5,34,0.12
2013-11-12,40.8,31.8,25.0,39.8,25.0,18.8,99,78,46,30.59,30.21,14,5,17,0.08
2013-11-13,43.9,31.0,21.0,27.4,21.3,16.0,99,72,33,30.61,30.39,14,4,14,0.00
2013-11-14,58.1,43.6,27.5,24.8,19.4,12.8,75,42,17,30.38,30.16,20,8,34,0.00
2013-11-15,53.6,45.6,36.7,46.3,31.0,19.9,99,59,40,30.19,30.09,20,6,30,0.11
2013-11-16,60.4,53.2,46.0,56.7,51.7,45.6,99,95,87,30.14,29.93,20,8,22,0.00
2013-11-17,66.9,59.8,53.2,66.4,51.5,26.5,99,78,29,29.94,29.55,40,13,106,1.12
2013-11-18,59.0,48.4,37.4,43.0,36.2,28.5,85,64,40,30.18,29.81,22,8,32,0.00
2013-11-19,46.4,35.8,29.3,31.6,28.6,26.2,91,76,56,30.32,30.17,12,4,30,0.00
2013-11-20,57.4,41.2,29.3,35.7,29.9,-9.3,86,66,15,30.31,30.21,9,4,30,0.00
2013-11-21,53.6,45.8,42.6,51.5,36.6,32.2,93,71,63,30.30,30.19,10,4,30,0.02
2013-11-22,55.4,49.3,12.7,53.5,42.3,-33.4,99,81,10,30.35,30.16,69,5,69,0.08
2013-11-23,46.2,33.2,22.8,33.1,24.2,13.2,99,72,31,30.52,30.31,16,5,34,0.00
2013-11-24,36.3,22.4,-27.0,14.9,10.0,-35.4,74,60,10,30.66,30.49,10,3,28,0.09
2013-11-25,44.1,31.3,19.0,37.4,16.5,-27.5,93,58,10,30.50,30.18,30,7,30,0.09
2013-11-26,34.3,32.0,25.0,34.1,31.4,23.8,99,98,93,30.19,29.90,12,1,24,0.06
2013-11-27,42.8,27.9,20.3,36.1,23.3,11.8,98,83,65,30.26,29.89,100,4,100,0.14
2013-11-28,50.4,23.4,11.7,43.1,14.5,-29.1,93,73,10,30.42,30.26,102,6,102,0.11
2013-11-29,51.6,34.5,13.1,50.2,21.4,-28.2,98,64,10,30.59,30.42,29,3,77,0.72
2013-11-30,44.6,31.1,23.4,32.0,23.7,-17.4,80,75,15,30.48,30.17,8,2,20,0.00
2013-12-1,54.5,44.5,12.6,43.4,33.1,-3.0,73,64,10,30.18,29.95,22,7,31,0.05
2013-12-2,113.5,45.5,12.4,99.9,34.4,-20.5,97,71,10,29.95,29.78,105,8,105,1.51
2013-12-3,92.1,46.8,14.0,57.2,41.3,-12.2,99,84,10,29.87,29.78,29,3,29,0.76
2013-12-4,68.4,50.3,-9.9,64.0,45.6,-38.1,99,88,10,29.88,29.74,16,6,31,0.04
2013-12-5,77.7,46.6,-8.3,73.6,38.4,-42.7,99,82,10,30.14,29.79,31,6,31,0.56
2013-12-6,32.5,29.4,25.9,32.1,28.0,22.6,99,94,84,30.34,30.11,6,0,6,0.17
2013-12-7,35.4,25.2,18.9,28.8,22.0,-27.0,99,89,10,30.55,30.34,0,0,24,0.04
2013-12-8,43.0,25.6,19.4,28.0,21.1,-20.4,98,86,10,30.48,30.00,24,0,24,0.00
2013-12-9,32.9,29.5,24.6,28.8,15.4,-18.2,98,68,10,30.21,29.99,7,0,24,0.01
2013-12-10,32.0,24.0,19.4,24.1,20.0,16.7,99,85,62,30.33,30.12,17,2,21,0.00
2013-12-11,38.7,26.3,15.3,26.0,20.1,12.7,97,78,56,30.47,30.26,46,7,46,0.07
2013-12-12,42.4,18.9,8.4,30.0,8.7,-26.9,92,67,10,30.52,30.31,12,5,31,0.00
2013-12-13,45.3,30.3,18.5,38.5,18.4,10.1,85,62,40,30.32,30.13,16,6,34,0.01
2013-12-14,40.3,36.3,33.8,34.6,29.3,-16.5,98,79,10,30.12,29.69,30,5,30,0.43
2013-12-15,48.0,29.4,22.8,31.8,25.2,-5.9,95,85,10,30.11,29.85,37,10,42,1.51
2013-12-16,42.1,30.4,26.8,40.8,25.6,-21.1,98,87,10,30.11,29.98,28,5,28,0.02
2013-12-17,34.5,34.5,34.5,32.4,32.4,32.4,92,92,92,30.16,29.97,6,6,7,0.00
2013-12-18,34.5,34.5,34.5,32.4,32.4,32.4,92,92,92,30.25,30.06,6,6,7,0.00
2013-12-19,59.2,44.7,7.7,42.4,32.5,-4.7,92,68,10,30.09,29.97,38,9,41,0.00
2013-12-20,63.7,53.3,12.2,61.6,43.7,-3.6,98,74,10,29.97,29.85,106,12,106,0.06
2013-12-21,67.8,60.4,4.1,64.8,54.8,2.4,99,84,10,29.85,29.49,33,13,103,1.44
2013-12-22,60.4,53.9,40.6,59.2,47.5,22.0,99,82,23,30.02,29.58,30,11,36,0.33
2013-12-23,42.4,33.4,26.4,39.4,27.7,20.3,96,80,51,30.36,30.03,12,5,29,0.09
2013-12-24,49.3,23.5,9.1,44.3,15.0,-30.1,95,72,10,30.51,30.34,102,5,102,0.09
2013-12-25,46.4,24.1,13.8,44.2,14.7,0.4,92,68,15,30.46,30.18,8,6,8,0.00
2013-12-26,45.7,31.5,28.4,25.6,18.5,15.5,72,58,43,30.34,30.16,8,6,11,0.00
2013-12-27,53.4,38.1,11.1,32.3,26.6,-6.0,85,65,22,30.40,30.28,13,6,35,0.00
2013-12-28,53.6,39.9,12.9,34.1,23.3,-21.1,87,55,10,30.29,30.02,30,8,30,0.12
2013-12-29,54.0,38.1,9.7,41.2,33.2,-16.7,99,84,10,30.03,29.81,30,6,30,0.45
2013-12-30,36.0,28.1,17.2,31.1,20.7,-26.5,95,78,10,30.22,30.01,15,4,27,0.00
2013-12-31,42.8,28.9,-22.5,39.8,17.6,-27.4,92,65,10,30.35,30.15,100,10,100,0.00
2014-1-1,50.4,36.0,14.5,32.9,24.9,-11.5,88,66,10,30.26,29.99,14,4,27,0.00
2014-1-2,37.9,25.7,10.4,32.8,22.9,8.0,99,90,62,30.23,29.78,4,1,24,0.02